Map

Track Data

SID SEASON NUMBER BASIN SUBBASIN NAME ISO_TIME NATURE LAT LON WMO_WIND WMO_PRES WMO_AGENCY TRACK_TYPE DIST2LAND LANDFALL IFLAG USA_AGENCY USA_ATCF_ID USA_LAT USA_LON USA_RECORD USA_STATUS USA_WIND USA_PRES USA_SSHS USA_R34_NE USA_R34_SE USA_R34_SW USA_R34_NW USA_R50_NE USA_R50_SE USA_R50_SW USA_R50_NW USA_R64_NE USA_R64_SE USA_R64_SW USA_R64_NW USA_POCI USA_ROCI USA_RMW USA_EYE TOKYO_LAT TOKYO_LON TOKYO_GRADE TOKYO_WIND TOKYO_PRES TOKYO_R50_DIR TOKYO_R50_LONG TOKYO_R50_SHORT TOKYO_R30_DIR TOKYO_R30_LONG TOKYO_R30_SHORT TOKYO_LAND CMA_LAT CMA_LON CMA_CAT CMA_WIND CMA_PRES HKO_LAT HKO_LON HKO_CAT HKO_WIND HKO_PRES NEWDELHI_LAT NEWDELHI_LON NEWDELHI_GRADE NEWDELHI_WIND NEWDELHI_PRES NEWDELHI_CI NEWDELHI_DP NEWDELHI_POCI REUNION_LAT REUNION_LON REUNION_TYPE REUNION_WIND REUNION_PRES REUNION_TNUM REUNION_CI REUNION_RMW REUNION_R34_NE REUNION_R34_SE REUNION_R34_SW REUNION_R34_NW REUNION_R50_NE REUNION_R50_SE REUNION_R50_SW REUNION_R50_NW REUNION_R64_NE REUNION_R64_SE REUNION_R64_SW REUNION_R64_NW BOM_LAT BOM_LON BOM_TYPE BOM_WIND BOM_PRES BOM_TNUM BOM_CI BOM_RMW BOM_R34_NE BOM_R34_SE BOM_R34_SW BOM_R34_NW BOM_R50_NE BOM_R50_SE BOM_R50_SW BOM_R50_NW BOM_R64_NE BOM_R64_SE BOM_R64_SW BOM_R64_NW BOM_ROCI BOM_POCI BOM_EYE BOM_POS_METHOD BOM_PRES_METHOD NADI_LAT NADI_LON NADI_CAT NADI_WIND NADI_PRES WELLINGTON_LAT WELLINGTON_LON WELLINGTON_WIND WELLINGTON_PRES DS824_LAT DS824_LON DS824_STAGE DS824_WIND DS824_PRES TD9636_LAT TD9636_LON TD9636_STAGE TD9636_WIND TD9636_PRES TD9635_LAT TD9635_LON TD9635_WIND TD9635_PRES TD9635_ROCI NEUMANN_LAT NEUMANN_LON NEUMANN_CLASS NEUMANN_WIND NEUMANN_PRES MLC_LAT MLC_LON MLC_CLASS MLC_WIND MLC_PRES USA_GUST BOM_GUST BOM_GUST_PER REUNION_GUST REUNION_GUST_PER USA_SEAHGT USA_SEARAD_NE USA_SEARAD_SE USA_SEARAD_SW USA_SEARAD_NW STORM_SPEED STORM_DIR
1893143N20087 1893 15 NI BB NOT_NAMED 1893-05-23 00:00:00 TS 19.7000 87.4000 main 99 99 _________O____ -1 19.7000 87.4000 TC 34 0 0
1893143N20087 1893 15 NI BB NOT_NAMED 1893-05-23 03:00:00 TS 19.7000 87.4000 main 99 99 _________PO___ -1 19.7000 87.4000 TC 36 19.7000 87.4000 2 0 0
1893143N20087 1893 15 NI BB NOT_NAMED 1893-05-23 06:00:00 TS 19.7038 87.3981 main 99 99 _________OP___ -1 19.7000 87.4000 TC 39 19.7094 87.3953 2 0 0
1893143N20087 1893 15 NI BB NOT_NAMED 1893-05-23 09:00:00 TS 19.7064 87.3968 main 99 99 _________PP___ -1 19.7000 87.4000 TC 42 19.7150 87.3925 2 0 0
1893143N20087 1893 15 NI BB NOT_NAMED 1893-05-23 12:00:00 TS 19.7066 87.3967 main 99 99 _________OP___ -1 19.7000 87.4000 TC 45 19.7131 87.3935 2 0 0
1893143N20087 1893 15 NI BB NOT_NAMED 1893-05-23 15:00:00 TS 19.7000 87.4000 main 99 99 _________PO___ -1 19.7000 87.4000 TC 49 19.7000 87.4000 3 0 0
1893143N20087 1893 15 NI BB NOT_NAMED 1893-05-23 18:00:00 TS 19.6878 87.4061 main 99 99 _________OP___ -1 19.7000 87.4000 TC 54 19.6756 87.4121 3 0 139
1893143N20087 1893 15 NI BB NOT_NAMED 1893-05-23 21:00:00 TS 19.6700 87.4149 main 99 99 _________PP___ -1 19.6850 87.4075 TC 59 19.6550 87.4224 3 0 0
1893143N20087 1893 15 NI BB NOT_NAMED 1893-05-24 00:00:00 TS 19.6784 87.4107 main 99 99 _________OP___ -1 19.7000 87.4000 TC 64 19.6569 87.4215 3 1 325
1893143N20087 1893 15 NI BB NOT_NAMED 1893-05-24 03:00:00 TS 19.7350 87.3825 main 99 83 _________PO___ -1 19.7700 87.3650 TC 64 19.7000 87.4000 4 2 335
1893143N20087 1893 15 NI BB NOT_NAMED 1893-05-24 06:00:00 TS 19.8575 87.3193 main 76 62 _________OP___ -1 19.9000 87.3000 TC 64 19.8150 87.3386 4 3 334
1893143N20087 1893 15 NI BB NOT_NAMED 1893-05-24 09:00:00 TS 20.0350 87.2289 main 62 43 _________PP___ -1 20.1000 87.2001 TC 64 19.9701 87.2577 4 4 335
1893143N20087 1893 15 NI BB NOT_NAMED 1893-05-24 12:00:00 TS 20.2200 87.1365 main 43 30 _________OP___ -1 20.3000 87.1000 TC 64 20.1400 87.1730 4 4 335
1893143N20087 1893 15 NI BB NOT_NAMED 1893-05-24 15:00:00 TS 20.3575 87.0675 main 30 23 _________PO___ -1 20.4150 87.0350 TC 64 20.3000 87.1000 4 3 335
1893143N20087 1893 15 NI BB NOT_NAMED 1893-05-24 18:00:00 TS 20.4470 87.0242 main 23 15 _________OP___ -1 20.5000 87.0000 TC 64 20.3940 87.0484 4 2 344
1893143N20087 1893 15 NI BB NOT_NAMED 1893-05-24 21:00:00 TS 20.5275 87.0025 main 15 10 _________PP___ -1 20.5775 86.9925 TC 64 20.4775 87.0125 4 2 355
1893143N20087 1893 15 NI BB NOT_NAMED 1893-05-25 00:00:00 TS 20.6361 86.9977 main 10 0 _________OP___ -1 20.7000 87.0000 TC 64 20.5722 86.9954 4 3 356
1893143N20087 1893 15 NI BB NOT_NAMED 1893-05-25 03:00:00 TS 20.8175 86.9925 main 0 0 _________PO___ -1 20.9350 86.9851 TC 64 20.7000 87.0000 4 4 2
1893143N20087 1893 15 NI BB NOT_NAMED 1893-05-25 06:00:00 TS 21.0527 87.0101 main 20 15 _________OP___ -1 21.2000 87.0000 TC 64 20.9053 87.0202 4 5 10
1893143N20087 1893 15 NI BB NOT_NAMED 1893-05-25 09:00:00 TS 21.2787 87.0737 main 15 0 _________PP___ -1 21.4150 87.0850 TC 64 21.1425 87.0624 4 5 18
1893143N20087 1893 15 NI BB NOT_NAMED 1893-05-25 12:00:00 TS 21.4917 87.1617 main 10 0 _________OP___ -1 21.6000 87.2000 TC 64 21.3834 87.1234 4 4 22
1893143N20087 1893 15 NI BB NOT_NAMED 1893-05-25 15:00:00 TS 21.6825 87.2500 main 0 0 _________PO___ -1 21.7650 87.3000 TC 59 21.6000 87.2000 4 4 27
1893143N20087 1893 15 NI BB NOT_NAMED 1893-05-25 18:00:00 TS 21.8248 87.3408 main 0 0 _________OP___ -1 21.9000 87.4000 TC 54 21.7497 87.2817 4 3 35
1893143N20087 1893 15 NI BB NOT_NAMED 1893-05-25 21:00:00 TS 21.9362 87.4388 main 0 0 _________PP___ -1 22.0000 87.5000 TC 49 21.8725 87.3776 4 3 40
1893143N20087 1893 15 NI BB NOT_NAMED 1893-05-26 00:00:00 TS 22.0420 87.5424 main 0 0 _________OP___ -1 22.1000 87.6000 TC 45 21.9840 87.4848 4 3 39
1893143N20087 1893 15 NI BB NOT_NAMED 1893-05-26 03:00:00 TS 22.1712 87.6463 main 0 0 _________PO___ -1 22.2425 87.6925 TC 41 22.1000 87.6000 3 4 36
1893143N20087 1893 15 NI BB NOT_NAMED 1893-05-26 06:00:00 TS 22.3275 87.7629 main 0 0 _________OP___ -1 22.4000 87.8000 TC 37 22.2550 87.7258 3 4 37
1893143N20087 1893 15 NI BB NOT_NAMED 1893-05-26 09:00:00 TS 22.4863 87.9074 main 0 0 _________PP___ -1 22.5575 87.9574 TC 33 22.4151 87.8573 3 4 40
1893143N20087 1893 15 NI BB NOT_NAMED 1893-05-26 12:00:00 TS 22.6338 88.0426 main 0 0 _________OP___ -1 22.7000 88.1000 TC 30 22.5675 87.9852 3 3 37
1893143N20087 1893 15 NI BB NOT_NAMED 1893-05-26 15:00:00 TS 22.7575 88.1288 main 0 0 _________PO___ -1 22.8150 88.1576 TC 30 22.7000 88.1000 1 2 32
1893143N20087 1893 15 NI BB NOT_NAMED 1893-05-26 18:00:00 TS 22.8442 88.1867 main 0 0 _________OP___ -1 22.9000 88.2000 TC 30 22.7883 88.1734 1 2 40
1893143N20087 1893 15 NI BB NOT_NAMED 1893-05-26 21:00:00 TS 22.8999 88.2602 main 0 0 _________PP___ -1 22.9425 88.2851 TC 30 22.8573 88.2354 1 2 53
1893143N20087 1893 15 NI BB NOT_NAMED 1893-05-27 00:00:00 TS 22.9613 88.3523 main 0 0 _________OP___ -1 23.0000 88.4000 TC 30 22.9227 88.3047 1 3 48
1893143N20087 1893 15 NI BB NOT_NAMED 1893-05-27 03:00:00 TS 23.0712 88.4675 main 0 0 _________PO___ -1 23.1425 88.5350 TC 30 23.0000 88.4000 1 3 45
1893143N20087 1893 15 NI BB NOT_NAMED 1893-05-27 06:00:00 TS 23.2074 88.6210 main 0 0 _________OP___ -1 23.3000 88.7000 TC 30 23.1147 88.5421 1 4 51
1893143N20087 1893 15 NI BB NOT_NAMED 1893-05-27 09:00:00 TS 23.3250 88.8025 main 0 0 _________PP___ -1 23.4075 88.8925 TC 30 23.2425 88.7124 1 4 57
1893143N20087 1893 15 NI BB NOT_NAMED 1893-05-27 12:00:00 TS 23.4370 89.0007 main 0 0 _________OP___ -1 23.5000 89.1000 TC 30 23.3741 88.9015 1 4 58
1893143N20087 1893 15 NI BB NOT_NAMED 1893-05-27 15:00:00 TS 23.5500 89.2000 main 0 0 _________PO___ -1 23.6000 89.3000 TC 30 23.5000 89.1000 1 4 59
1893143N20087 1893 15 NI BB NOT_NAMED 1893-05-27 18:00:00 TS 23.6504 89.3857 main 0 0 _________OP___ -1 23.7000 89.5000 TC 30 23.6132 89.3000 1 4 60
1893143N20087 1893 15 NI BB NOT_NAMED 1893-05-27 21:00:00 TS 23.7491 89.5799 main 0 0 _________PP___ -1 23.8001 89.6999 TC 30 23.7152 89.4999 1 4 62
1893143N20087 1893 15 NI BB NOT_NAMED 1893-05-28 00:00:00 TS 23.8397 89.7666 main 0 0 _________OP___ -1 23.9000 89.9000 TC 30 23.8095 89.6999 1 3 63
1893143N20087 1893 15 NI BB NOT_NAMED 1893-05-28 03:00:00 NR 23.9000 89.9000 main 0 __________O___ -1 TC 23.9000 89.9000 1 3 64

About IBTrACS Database

This database is a web-friendly format of International Best Track Archive for Climate Stewardship (IBTrACS), a global best track data archive curated by NOAA dating back to 1842.

Updated: 2021-12-03